Time;durP1;ratioP1;P1;durP2;ratioP2;P2;SDS_P1;SDS_P2;PMS_P1;PMS_P2;Temp;Humidity;BMP_temperature;BMP_pressure;BME280_temperature;BME280_humidity;BME280_pressure;Samples;Min_cycle;Max_cycle;Signal;HPM_P1;HPM_P2
2021/01/25 00:01:14;;;;;;;2.23;2.13;;;1.50;99.90;;;;;;4998961;28;20473;-68
2021/01/25 00:03:41;;;;;;;3.13;2.90;;;1.40;99.90;;;;;;4998124;28;20436;-67
2021/01/25 00:06:08;;;;;;;2.57;2.20;;;1.40;99.90;;;;;;4996805;28;20495;-68
2021/01/25 00:08:35;;;;;;;2.13;1.93;;;1.30;99.90;;;;;;4982711;28;20453;-67
2021/01/25 00:11:02;;;;;;;3.80;3.50;;;1.30;99.90;;;;;;4994578;28;20470;-68
2021/01/25 00:13:28;;;;;;;4.37;4.07;;;1.30;99.90;;;;;;4993535;28;20465;-68
2021/01/25 00:15:55;;;;;;;3.77;2.90;;;1.30;99.90;;;;;;4994390;28;20581;-67
2021/01/25 00:18:22;;;;;;;4.57;3.30;;;1.30;99.90;;;;;;4976615;28;20489;-67
2021/01/25 00:20:49;;;;;;;3.80;2.77;;;1.40;99.90;;;;;;4985908;28;20451;-68
2021/01/25 00:23:16;;;;;;;3.30;3.00;;;1.40;99.90;;;;;;4996135;28;20433;-67
2021/01/25 00:25:43;;;;;;;14.73;2.27;;;1.40;99.90;;;;;;4997160;28;20470;-68
2021/01/25 00:28:10;;;;;;;5.23;3.90;;;1.40;99.90;;;;;;4993363;28;20468;-68
2021/01/25 00:30:36;;;;;;;4.77;4.30;;;1.40;99.90;;;;;;4956577;28;20492;-68
2021/01/25 00:33:03;;;;;;;4.07;3.47;;;1.30;99.90;;;;;;4976694;28;21039;-68
2021/01/25 00:35:30;;;;;;;10.90;4.33;;;1.30;99.90;;;;;;4994329;28;20499;-67
2021/01/25 00:37:58;;;;;;;4.80;2.80;;;1.40;99.90;;;;;;4983847;28;20436;-68
2021/01/25 00:40:24;;;;;;;1.83;1.73;;;1.40;99.90;;;;;;4997038;28;20465;-68
2021/01/25 00:42:51;;;;;;;6.00;2.50;;;1.40;99.90;;;;;;4999640;28;20553;-68
2021/01/25 00:45:18;;;;;;;8.90;4.53;;;1.40;99.90;;;;;;4999602;28;20486;-68
2021/01/25 00:47:44;;;;;;;7.33;4.80;;;1.40;99.90;;;;;;4977892;28;20440;-68
2021/01/25 00:50:11;;;;;;;16.13;4.80;;;1.50;99.90;;;;;;4998912;28;20954;-68
2021/01/25 00:52:38;;;;;;;7.63;4.63;;;1.50;99.90;;;;;;4997289;28;20436;-68
2021/01/25 00:55:07;;;;;;;7.27;5.90;;;1.50;99.90;;;;;;5000504;28;20439;-68
2021/01/25 00:57:34;;;;;;;7.40;5.30;;;1.50;99.90;;;;;;4991813;28;20509;-69
2021/01/25 01:00:00;;;;;;;6.80;4.47;;;1.50;99.90;;;;;;5000438;28;20514;-67
2021/01/25 01:02:27;;;;;;;11.40;6.53;;;1.50;99.90;;;;;;4977658;28;20954;-68
2021/01/25 01:04:53;;;;;;;7.03;6.33;;;1.50;99.90;;;;;;4991774;28;20463;-67
2021/01/25 01:07:21;;;;;;;10.20;6.43;;;1.50;99.90;;;;;;4996503;28;20470;-67
2021/01/25 01:09:47;;;;;;;8.10;5.73;;;1.50;99.90;;;;;;5000613;28;20461;-68
2021/01/25 01:12:15;;;;;;;12.87;4.20;;;1.50;99.90;;;;;;4990714;28;20564;-68
2021/01/25 01:14:41;;;;;;;8.10;4.50;;;1.50;99.90;;;;;;4981083;28;20457;-68
2021/01/25 01:17:08;;;;;;;6.37;3.70;;;1.50;99.90;;;;;;4982754;28;20515;-68
2021/01/25 01:19:35;;;;;;;4.10;3.73;;;1.40;99.90;;;;;;4970038;28;20936;-68
2021/01/25 01:22:02;;;;;;;5.40;4.90;;;1.40;99.90;;;;;;4971999;28;20466;-67
2021/01/25 01:24:28;;;;;;;6.63;5.37;;;1.30;99.90;;;;;;4968777;28;20432;-68
2021/01/25 01:26:55;;;;;;;5.50;4.73;;;1.30;99.90;;;;;;4990284;28;20444;-67
2021/01/25 01:29:22;;;;;;;6.80;5.17;;;1.40;99.90;;;;;;4976012;28;20762;-68
2021/01/25 01:31:49;;;;;;;12.97;5.77;;;1.50;99.90;;;;;;4992532;28;20461;-67
2021/01/25 01:34:16;;;;;;;7.20;4.10;;;1.50;99.90;;;;;;4974853;28;20467;-67
2021/01/25 01:36:42;;;;;;;6.60;4.00;;;1.60;99.90;;;;;;4997496;28;20550;-68
2021/01/25 01:39:09;;;;;;;5.53;4.43;;;1.50;99.90;;;;;;4999854;28;21133;-67
2021/01/25 01:41:36;;;;;;;7.47;5.07;;;1.50;99.90;;;;;;4996876;28;20505;-68
2021/01/25 01:44:03;;;;;;;5.70;4.20;;;1.50;99.90;;;;;;4995784;28;20472;-68
2021/01/25 01:46:32;;;;;;;5.33;3.93;;;1.60;99.90;;;;;;4994464;28;20516;-67
2021/01/25 01:48:59;;;;;;;5.00;4.47;;;1.70;99.90;;;;;;4998136;28;20476;-68
2021/01/25 01:51:25;;;;;;;6.13;3.53;;;1.70;99.90;;;;;;4996643;28;20506;-68
2021/01/25 01:53:52;;;;;;;5.63;5.07;;;1.60;99.90;;;;;;4994695;28;20895;-68
2021/01/25 01:56:19;;;;;;;3.67;2.97;;;1.60;99.90;;;;;;4993307;28;20445;-68
2021/01/25 01:58:45;;;;;;;12.03;6.17;;;1.70;99.90;;;;;;4998809;28;20428;-68
2021/01/25 02:01:13;;;;;;;7.47;4.40;;;1.80;99.90;;;;;;4996175;28;20595;-68
2021/01/25 02:03:40;;;;;;;13.00;4.50;;;1.70;99.90;;;;;;4994899;28;20428;-66
2021/01/25 02:06:09;;;;;;;7.10;3.50;;;1.70;99.90;;;;;;4991523;28;20486;-66
2021/01/25 02:08:39;;;;;;;7.27;4.00;;;1.80;99.90;;;;;;4996848;28;20431;-66
2021/01/25 02:11:07;;;;;;;7.13;3.83;;;1.80;99.90;;;;;;4995587;28;20468;-66
2021/01/25 02:13:35;;;;;;;5.00;4.17;;;1.70;99.90;;;;;;4996719;28;20473;-65
2021/01/25 02:16:03;;;;;;;6.40;3.93;;;1.70;99.90;;;;;;4991667;28;20460;-68
2021/01/25 02:18:30;;;;;;;9.10;4.73;;;1.70;99.90;;;;;;4988417;28;20440;-66
2021/01/25 02:20:58;;;;;;;8.07;4.30;;;1.70;99.90;;;;;;4999056;28;20466;-65
2021/01/25 02:23:58;;;;;;;7.73;3.30;;;1.70;99.90;;;;;;4999473;28;21551;-66
2021/01/25 02:26:39;;;;;;;5.43;3.80;;;1.70;99.90;;;;;;4982983;28;20463;-66
2021/01/25 02:29:07;;;;;;;5.77;4.23;;;1.60;99.90;;;;;;4997054;28;20467;-67
2021/01/25 02:31:33;;;;;;;8.60;4.00;;;1.80;99.90;;;;;;4998680;28;20461;-68
2021/01/25 02:34:02;;;;;;;5.67;5.17;;;1.90;99.90;;;;;;4993343;28;20523;-69
2021/01/25 02:36:31;;;;;;;3.83;3.50;;;1.90;99.90;;;;;;4994635;28;20463;-68
2021/01/25 02:39:01;;;;;;;6.83;4.80;;;1.80;99.90;;;;;;4997186;28;20815;-69
2021/01/25 02:41:29;;;;;;;5.97;2.70;;;1.80;99.90;;;;;;4987759;28;20439;-68
2021/01/25 02:43:59;;;;;;;9.27;5.30;;;1.80;99.90;;;;;;4989560;28;20463;-67
2021/01/25 02:46:28;;;;;;;8.10;3.43;;;1.80;99.90;;;;;;4991176;28;20512;-69
2021/01/25 02:48:55;;;;;;;6.90;5.63;;;1.90;99.90;;;;;;4987921;28;20461;-65
2021/01/25 02:51:22;;;;;;;7.20;5.70;;;1.90;99.90;;;;;;4990777;28;20495;-65
2021/01/25 02:53:50;;;;;;;5.00;4.03;;;2.00;99.90;;;;;;4990158;28;20428;-65
2021/01/25 02:56:16;;;;;;;8.97;6.27;;;1.90;99.90;;;;;;4989579;28;20488;-65
2021/01/25 02:58:46;;;;;;;9.33;4.70;;;1.80;99.90;;;;;;4987643;28;20440;-65
2021/01/25 03:01:12;;;;;;;4.33;3.10;;;1.90;99.90;;;;;;4989260;28;20490;-66
2021/01/25 03:03:41;;;;;;;5.00;4.50;;;1.90;99.90;;;;;;4995980;28;20524;-66
2021/01/25 03:06:10;;;;;;;7.00;4.30;;;1.90;99.90;;;;;;4992905;28;20804;-66
2021/01/25 03:08:36;;;;;;;5.90;4.90;;;1.90;99.90;;;;;;4998938;28;20464;-66
2021/01/25 03:11:03;;;;;;;6.73;4.73;;;1.80;99.90;;;;;;4986903;28;20489;-66
2021/01/25 03:13:30;;;;;;;10.20;5.33;;;1.70;99.90;;;;;;4992854;28;20531;-66
2021/01/25 03:15:59;;;;;;;8.90;3.33;;;1.70;99.90;;;;;;4990864;28;20505;-66
2021/01/25 03:18:26;;;;;;;4.60;3.60;;;1.50;99.90;;;;;;4999996;28;20471;-66
2021/01/25 03:20:55;;;;;;;4.60;3.77;;;1.40;99.90;;;;;;4998639;28;20932;-66
2021/01/25 03:23:22;;;;;;;8.20;4.60;;;1.40;99.90;;;;;;4996799;28;20439;-65
2021/01/25 03:25:49;;;;;;;5.80;5.30;;;1.40;99.90;;;;;;4992662;28;20926;-66
2021/01/25 03:28:16;;;;;;;7.30;3.60;;;1.30;99.90;;;;;;4995012;28;20498;-66
2021/01/25 03:30:42;;;;;;;4.30;3.57;;;1.40;99.90;;;;;;4983666;28;20455;-66
2021/01/25 03:33:09;;;;;;;6.03;5.13;;;1.40;99.90;;;;;;4979951;28;20527;-67
2021/01/25 03:35:36;;;;;;;8.47;4.70;;;1.30;99.90;;;;;;4994461;28;20506;-66
2021/01/25 03:38:04;;;;;;;5.13;4.63;;;1.30;99.90;;;;;;4977126;28;20978;-67
2021/01/25 03:40:31;;;;;;;4.50;4.07;;;1.40;99.90;;;;;;4998567;28;20522;-65
2021/01/25 03:42:57;;;;;;;7.20;3.53;;;1.30;99.90;;;;;;4970196;28;20461;-66
2021/01/25 03:45:24;;;;;;;6.17;4.20;;;1.30;99.90;;;;;;4978446;28;20551;-66
2021/01/25 03:47:51;;;;;;;4.47;3.80;;;1.30;99.90;;;;;;4993249;28;20966;-66
2021/01/25 03:50:17;;;;;;;9.73;5.37;;;1.30;99.90;;;;;;4976553;28;20461;-67
2021/01/25 03:52:44;;;;;;;5.10;3.93;;;1.20;99.90;;;;;;5000441;28;21250;-66
2021/01/25 03:55:12;;;;;;;6.03;4.87;;;1.30;99.90;;;;;;4995791;28;20428;-66
2021/01/25 03:57:39;;;;;;;9.27;5.10;;;1.20;99.90;;;;;;4997940;28;20894;-66
2021/01/25 04:00:07;;;;;;;5.43;4.60;;;1.20;99.90;;;;;;4972593;28;21209;-67
2021/01/25 04:02:34;;;;;;;7.43;5.17;;;1.20;99.90;;;;;;4991205;28;20499;-66
2021/01/25 04:05:01;;;;;;;7.00;5.23;;;1.20;99.90;;;;;;4993881;28;20514;-64
2021/01/25 04:07:27;;;;;;;4.50;4.10;;;1.20;99.90;;;;;;4981011;28;20439;-66
2021/01/25 04:09:54;;;;;;;12.77;4.47;;;1.20;99.90;;;;;;4991207;28;20453;-66
2021/01/25 04:12:22;;;;;;;8.53;4.60;;;1.00;99.90;;;;;;4996718;28;20420;-66
2021/01/25 04:14:49;;;;;;;8.80;3.33;;;1.00;99.90;;;;;;4987230;28;20617;-65
2021/01/25 04:17:16;;;;;;;9.20;5.67;;;1.20;99.90;;;;;;4993944;28;21004;-67
2021/01/25 04:19:42;;;;;;;9.57;4.87;;;1.20;99.90;;;;;;4957227;28;20550;-65
2021/01/25 04:22:09;;;;;;;6.80;4.13;;;1.20;99.90;;;;;;5002555;28;20470;-67
2021/01/25 04:24:36;;;;;;;4.80;4.20;;;1.30;99.90;;;;;;4984723;28;20836;-66
2021/01/25 04:27:03;;;;;;;7.17;4.67;;;1.30;99.90;;;;;;4994591;28;20476;-66
2021/01/25 04:29:31;;;;;;;11.07;5.77;;;1.30;99.90;;;;;;4992772;28;20432;-65
2021/01/25 04:31:57;;;;;;;8.03;4.33;;;1.30;99.90;;;;;;4998508;28;20455;-66
2021/01/25 04:34:24;;;;;;;4.33;3.87;;;1.30;99.90;;;;;;4995512;28;20526;-66
2021/01/25 04:36:51;;;;;;;12.00;5.00;;;1.40;99.90;;;;;;4960007;28;21043;-66
2021/01/25 04:39:18;;;;;;;4.80;4.30;;;1.50;99.90;;;;;;4990242;28;20479;-67
2021/01/25 04:41:44;;;;;;;4.20;3.80;;;1.50;99.90;;;;;;4995283;28;20475;-67
2021/01/25 04:44:11;;;;;;;4.43;4.13;;;1.60;99.90;;;;;;4995506;28;20507;-67
2021/01/25 04:46:39;;;;;;;8.90;5.73;;;1.40;99.90;;;;;;4995779;28;20568;-66
2021/01/25 04:49:06;;;;;;;8.07;4.83;;;1.40;99.90;;;;;;4993562;28;20438;-66
2021/01/25 04:51:33;;;;;;;6.77;3.40;;;1.30;99.90;;;;;;4989816;28;20432;-67
2021/01/25 04:54:01;;;;;;;7.33;5.80;;;1.30;99.90;;;;;;4974662;28;20527;-65
2021/01/25 04:56:29;;;;;;;7.13;3.97;;;1.30;99.90;;;;;;4995742;28;20484;-65
2021/01/25 04:58:56;;;;;;;5.87;3.87;;;1.40;99.90;;;;;;5008270;28;20447;-65
2021/01/25 05:01:24;;;;;;;6.43;5.20;;;1.40;99.90;;;;;;5002146;28;20524;-66
2021/01/25 05:03:51;;;;;;;8.10;5.27;;;1.40;99.90;;;;;;4998839;28;20507;-66
2021/01/25 05:06:19;;;;;;;6.50;5.83;;;1.30;99.90;;;;;;4997477;28;20546;-65
2021/01/25 05:08:45;;;;;;;6.43;5.20;;;1.30;99.90;;;;;;4993201;28;20465;-66
2021/01/25 05:11:13;;;;;;;9.10;4.10;;;1.30;99.90;;;;;;4981647;28;20629;-65
2021/01/25 05:13:40;;;;;;;7.63;6.87;;;1.30;99.90;;;;;;4995812;28;20580;-66
2021/01/25 05:16:16;;;;;;;6.60;5.50;;;1.30;99.90;;;;;;4993588;28;20568;-66
2021/01/25 05:18:43;;;;;;;12.60;8.50;;;1.30;99.90;;;;;;4995686;28;20561;-66
2021/01/25 05:21:11;;;;;;;17.07;9.50;;;1.30;99.90;;;;;;4997478;28;20470;-66
2021/01/25 05:23:39;;;;;;;8.23;4.53;;;1.20;99.90;;;;;;4994095;28;20462;-65
2021/01/25 05:26:06;;;;;;;6.37;5.40;;;1.10;99.90;;;;;;4993888;28;20478;-65
2021/01/25 05:28:40;;;;;;;7.87;4.70;;;1.20;99.90;;;;;;4992156;28;20444;-67
2021/01/25 05:31:23;;;;;;;9.20;5.80;;;1.20;99.90;;;;;;4994826;28;20571;-66
2021/01/25 05:33:50;;;;;;;24.77;4.60;;;1.10;99.90;;;;;;4998776;28;20541;-67
2021/01/25 05:36:19;;;;;;;6.83;3.93;;;1.10;99.90;;;;;;5001005;28;20455;-66
2021/01/25 05:38:48;;;;;;;8.20;5.77;;;1.10;99.90;;;;;;4992645;28;20497;-66
2021/01/25 05:41:16;;;;;;;9.53;6.90;;;1.10;99.90;;;;;;4987932;28;20466;-66
2021/01/25 05:43:44;;;;;;;5.03;4.53;;;1.10;99.90;;;;;;4986897;28;20457;-67
2021/01/25 05:46:12;;;;;;;7.40;6.50;;;1.20;99.90;;;;;;4989179;28;20493;-67
2021/01/25 05:48:39;;;;;;;11.20;6.10;;;1.20;99.90;;;;;;4998055;28;20862;-67
2021/01/25 05:51:14;;;;;;;9.90;6.77;;;1.20;99.90;;;;;;4998519;28;20465;-67
2021/01/25 05:53:43;;;;;;;8.83;6.63;;;1.20;99.90;;;;;;4994183;28;20486;-66
2021/01/25 05:56:11;;;;;;;9.20;4.37;;;1.20;99.90;;;;;;5002086;28;20563;-66
2021/01/25 05:58:39;;;;;;;4.43;3.70;;;1.10;99.90;;;;;;4997146;28;20448;-66
2021/01/25 06:01:06;;;;;;;5.40;4.93;;;1.10;99.90;;;;;;4995696;28;20984;-67
2021/01/25 06:03:36;;;;;;;5.13;4.63;;;1.00;99.90;;;;;;5005561;28;20453;-67
2021/01/25 06:06:07;;;;;;;7.20;5.63;;;1.00;99.90;;;;;;4996609;28;20538;-66
2021/01/25 06:08:48;;;;;;;11.17;5.83;;;1.10;99.90;;;;;;4995305;28;20431;-67
2021/01/25 06:11:19;;;;;;;9.70;6.70;;;1.20;99.90;;;;;;5000290;28;20981;-67
2021/01/25 06:13:54;;;;;;;8.03;4.77;;;1.30;99.90;;;;;;4998660;28;20951;-67
2021/01/25 06:16:23;;;;;;;19.20;7.30;;;1.20;99.90;;;;;;4997604;28;21030;-68
2021/01/25 06:18:50;;;;;;;5.07;4.60;;;1.20;99.90;;;;;;5006009;28;20442;-67
2021/01/25 06:21:21;;;;;;;8.77;5.90;;;1.20;99.90;;;;;;4983318;28;20540;-67
2021/01/25 06:23:51;;;;;;;6.33;5.40;;;1.30;99.90;;;;;;5005877;28;20852;-67
2021/01/25 06:26:18;;;;;;;7.60;5.20;;;1.30;99.90;;;;;;5005919;28;20546;-67
2021/01/25 06:28:48;;;;;;;9.37;6.47;;;1.50;99.90;;;;;;4993535;28;20436;-68
2021/01/25 06:31:18;;;;;;;12.30;6.07;;;1.30;99.90;;;;;;4999372;28;20533;-68
2021/01/25 06:33:47;;;;;;;8.40;4.90;;;1.30;99.90;;;;;;4998807;28;20921;-67
2021/01/25 06:36:17;;;;;;;6.93;5.60;;;1.20;99.90;;;;;;4997529;28;20829;-67
2021/01/25 06:38:45;;;;;;;11.40;4.80;;;1.20;99.90;;;;;;5005138;28;20994;-67
2021/01/25 06:41:14;;;;;;;6.87;3.50;;;1.20;99.90;;;;;;4995211;28;20461;-67
2021/01/25 06:43:41;;;;;;;8.40;5.43;;;1.20;99.90;;;;;;5004869;28;20506;-67
2021/01/25 06:46:09;;;;;;;9.67;7.47;;;1.10;99.90;;;;;;4995320;28;20489;-67
2021/01/25 06:48:37;;;;;;;5.10;4.70;;;1.00;99.90;;;;;;4998088;28;20436;-65
2021/01/25 06:51:06;;;;;;;7.23;5.90;;;0.90;99.90;;;;;;4997967;28;20496;-66
2021/01/25 06:53:35;;;;;;;7.57;5.90;;;0.90;99.90;;;;;;4996760;28;20461;-66
2021/01/25 06:56:02;;;;;;;8.00;5.63;;;0.90;99.90;;;;;;5000610;28;20487;-66
2021/01/25 06:58:30;;;;;;;6.50;4.67;;;1.00;99.90;;;;;;4991963;28;20811;-67
2021/01/25 07:00:57;;;;;;;9.10;6.57;;;1.10;99.90;;;;;;4996240;28;20444;-67
2021/01/25 07:03:24;;;;;;;7.80;5.50;;;1.00;99.90;;;;;;5004586;28;20556;-66
2021/01/25 07:05:51;;;;;;;7.80;5.10;;;1.10;99.90;;;;;;5001883;28;20871;-67
2021/01/25 07:08:22;;;;;;;7.17;6.57;;;1.20;99.90;;;;;;5006138;28;20439;-67
2021/01/25 07:10:57;;;;;;;8.13;5.57;;;1.30;99.90;;;;;;5001559;28;20467;-67
2021/01/25 07:13:25;;;;;;;11.27;5.97;;;1.20;99.90;;;;;;4999526;28;20459;-67
2021/01/25 07:15:54;;;;;;;12.03;4.73;;;1.30;99.90;;;;;;4995868;28;20537;-67
2021/01/25 07:18:22;;;;;;;10.23;4.67;;;1.20;99.90;;;;;;5002326;28;20465;-67
2021/01/25 07:20:49;;;;;;;8.67;6.70;;;1.20;99.90;;;;;;5004579;28;20439;-67
2021/01/25 07:23:20;;;;;;;6.50;5.07;;;1.30;99.90;;;;;;4998973;28;20470;-67
2021/01/25 07:25:52;;;;;;;8.20;5.53;;;1.40;99.90;;;;;;4996294;28;20456;-67
2021/01/25 07:28:19;;;;;;;6.97;6.07;;;1.40;99.90;;;;;;5004617;28;20920;-67
2021/01/25 07:30:46;;;;;;;12.37;6.07;;;1.40;99.90;;;;;;4985470;28;20930;-67
2021/01/25 07:33:13;;;;;;;22.40;6.97;;;1.40;99.90;;;;;;4992553;28;20475;-67
2021/01/25 07:35:40;;;;;;;12.73;6.60;;;1.40;99.90;;;;;;4994965;28;20507;-67
2021/01/25 07:38:07;;;;;;;16.73;6.30;;;1.60;99.90;;;;;;5003553;28;20439;-67
2021/01/25 07:40:33;;;;;;;10.77;5.47;;;1.70;99.90;;;;;;4987434;28;20545;-67
2021/01/25 07:43:03;;;;;;;8.40;5.63;;;1.70;99.90;;;;;;4982361;28;20935;-67
2021/01/25 07:45:30;;;;;;;9.20;6.90;;;1.70;99.90;;;;;;5000869;28;20455;-66
2021/01/25 07:47:57;;;;;;;11.77;7.03;;;1.80;99.90;;;;;;4997578;28;21285;-67
2021/01/25 07:50:25;;;;;;;12.87;5.70;;;1.80;99.90;;;;;;5002140;28;20432;-67
2021/01/25 07:52:59;;;;;;;6.77;4.73;;;1.80;99.90;;;;;;4992564;28;21017;-67
2021/01/25 07:55:27;;;;;;;5.53;5.03;;;1.90;99.90;;;;;;5001524;28;20464;-67
2021/01/25 07:57:55;;;;;;;19.67;9.07;;;1.90;99.90;;;;;;4990233;28;20458;-67
2021/01/25 08:00:23;;;;;;;10.33;6.20;;;1.90;99.90;;;;;;4988114;28;20447;-67
2021/01/25 08:02:55;;;;;;;8.00;5.73;;;1.70;99.90;;;;;;4997410;28;20448;-68
2021/01/25 08:05:24;;;;;;;15.80;9.07;;;1.80;99.90;;;;;;4993551;28;20432;-67
2021/01/25 08:07:52;;;;;;;11.10;8.70;;;1.80;99.90;;;;;;4995265;28;20495;-67
2021/01/25 08:10:19;;;;;;;16.03;8.07;;;1.80;99.90;;;;;;4993620;28;20958;-67
2021/01/25 08:12:46;;;;;;;14.23;7.27;;;1.80;99.90;;;;;;4997168;28;20531;-67
2021/01/25 08:15:20;;;;;;;9.63;6.30;;;1.80;99.90;;;;;;4997363;28;20469;-67
2021/01/25 08:17:52;;;;;;;7.20;4.87;;;1.90;99.90;;;;;;4996652;28;20466;-65
2021/01/25 08:20:22;;;;;;;8.60;6.20;;;2.00;99.90;;;;;;5003028;28;20526;-66
2021/01/25 08:22:54;;;;;;;8.60;7.40;;;2.00;99.90;;;;;;5004753;28;20485;-66
2021/01/25 08:25:23;;;;;;;11.40;7.13;;;2.00;99.90;;;;;;5002499;28;20948;-66
2021/01/25 08:28:03;;;;;;;15.10;9.60;;;1.80;99.90;;;;;;5002217;28;20435;-66
2021/01/25 08:30:37;;;;;;;25.43;8.50;;;1.70;99.90;;;;;;5005679;28;20510;-67
2021/01/25 08:33:05;;;;;;;16.00;9.47;;;1.80;99.90;;;;;;5003665;28;20428;-66
2021/01/25 08:35:36;;;;;;;10.23;7.10;;;1.90;99.90;;;;;;4999695;28;20437;-68
2021/01/25 08:38:22;;;;;;;23.87;7.30;;;1.90;99.90;;;;;;4996969;28;20461;-67
2021/01/25 08:40:50;;;;;;;9.53;7.50;;;2.00;99.90;;;;;;5007934;28;20467;-67
2021/01/25 08:43:25;;;;;;;24.60;10.70;;;2.10;99.90;;;;;;5002043;28;20496;-66
2021/01/25 08:45:56;;;;;;;22.20;9.10;;;2.10;99.90;;;;;;4997604;28;20481;-67
2021/01/25 08:48:30;;;;;;;42.47;22.37;;;2.10;99.90;;;;;;4997164;28;20469;-66
2021/01/25 08:51:09;;;;;;;15.77;10.80;;;1.90;99.90;;;;;;4998276;28;20532;-67
2021/01/25 08:53:36;;;;;;;12.63;6.73;;;2.10;99.90;;;;;;4999369;28;20979;-67
2021/01/25 08:56:13;;;;;;;22.60;10.73;;;2.20;99.90;;;;;;4997880;28;20565;-67
2021/01/25 08:58:39;;;;;;;12.77;6.83;;;2.20;99.90;;;;;;4998434;28;20473;-67
2021/01/25 09:01:17;;;;;;;10.70;8.23;;;2.10;99.90;;;;;;4980218;28;20544;-66
2021/01/25 09:03:44;;;;;;;111.13;50.77;;;2.20;99.90;;;;;;4998179;28;20765;-67
2021/01/25 09:06:12;;;;;;;13.13;9.90;;;2.30;99.90;;;;;;4992218;28;20963;-66
2021/01/25 09:08:40;;;;;;;11.23;8.60;;;2.20;99.90;;;;;;4998398;28;20569;-67
2021/01/25 09:11:07;;;;;;;23.67;14.37;;;2.30;99.90;;;;;;5004670;28;20497;-67
2021/01/25 09:13:34;;;;;;;11.37;7.27;;;2.60;99.90;;;;;;4986929;28;20831;-67
2021/01/25 09:16:01;;;;;;;36.90;15.50;;;2.60;99.90;;;;;;4997014;28;20498;-67
2021/01/25 09:18:30;;;;;;;16.53;11.90;;;2.50;99.90;;;;;;5000411;28;20797;-66
2021/01/25 09:20:57;;;;;;;22.47;10.93;;;2.70;99.90;;;;;;4982752;28;20457;-68
2021/01/25 09:23:24;;;;;;;27.33;18.80;;;2.80;99.90;;;;;;4995867;28;20465;-66
2021/01/25 09:25:51;;;;;;;25.13;14.20;;;3.10;99.90;;;;;;4995318;28;20486;-67
2021/01/25 09:28:18;;;;;;;13.30;7.97;;;3.10;99.90;;;;;;4995992;28;20489;-67
2021/01/25 09:30:44;;;;;;;12.60;7.90;;;3.40;99.90;;;;;;4998102;28;20515;-67
2021/01/25 09:33:11;;;;;;;16.33;9.40;;;3.70;99.90;;;;;;4999051;28;20994;-67
2021/01/25 09:35:39;;;;;;;20.67;8.30;;;3.90;99.90;;;;;;4983355;28;20501;-67
2021/01/25 09:38:06;;;;;;;16.23;7.53;;;4.00;99.90;;;;;;4940156;28;20435;-67
2021/01/25 09:40:34;;;;;;;9.80;8.43;;;4.20;99.90;;;;;;4962201;28;20458;-67
2021/01/25 09:43:01;;;;;;;12.97;6.63;;;4.40;99.90;;;;;;4996922;28;20457;-66
2021/01/25 09:45:29;;;;;;;14.13;6.80;;;4.70;99.90;;;;;;4997072;28;20527;-66
2021/01/25 09:47:56;;;;;;;13.03;7.37;;;4.70;99.90;;;;;;5004925;28;21001;-68
2021/01/25 09:50:23;;;;;;;14.73;8.90;;;4.90;99.90;;;;;;4987536;28;20466;-68
2021/01/25 09:52:50;;;;;;;14.07;6.63;;;5.10;99.90;;;;;;4997514;28;20455;-66
2021/01/25 09:55:19;;;;;;;10.93;8.37;;;5.30;99.90;;;;;;4996960;28;20930;-67
2021/01/25 09:57:46;;;;;;;9.37;7.00;;;5.60;99.90;;;;;;4997484;28;20535;-67
2021/01/25 10:00:13;;;;;;;11.07;7.30;;;5.70;99.90;;;;;;4995288;28;20958;-67
2021/01/25 10:02:41;;;;;;;9.90;6.37;;;5.70;99.90;;;;;;4995087;28;20532;-67
2021/01/25 10:05:10;;;;;;;8.67;7.87;;;5.80;99.90;;;;;;4999457;28;20501;-66
2021/01/25 10:07:36;;;;;;;11.50;7.87;;;5.40;99.90;;;;;;4993509;28;20510;-66
2021/01/25 10:10:10;;;;;;;7.57;6.80;;;5.60;99.90;;;;;;4981372;28;20454;-67
2021/01/25 10:12:37;;;;;;;12.50;8.87;;;5.90;99.90;;;;;;4997439;28;20432;-67
2021/01/25 10:15:06;;;;;;;7.67;6.63;;;6.40;99.90;;;;;;4985053;28;20475;-66
2021/01/25 10:17:33;;;;;;;11.87;9.73;;;7.20;99.90;;;;;;4995004;28;20532;-66
2021/01/25 10:20:01;;;;;;;8.33;7.63;;;7.80;99.90;;;;;;4996742;28;20461;-66
2021/01/25 10:22:28;;;;;;;16.00;7.00;;;7.70;99.90;;;;;;4996647;28;20458;-67
2021/01/25 10:24:54;;;;;;;10.67;8.30;;;8.40;99.90;;;;;;4980097;28;21019;-69
2021/01/25 10:27:22;;;;;;;10.83;5.77;;;8.60;99.90;;;;;;4978464;28;20489;-66
2021/01/25 10:29:49;;;;;;;12.97;7.00;;;8.70;99.90;;;;;;4996533;28;20908;-66
2021/01/25 10:32:16;;;;;;;11.80;8.03;;;8.30;99.90;;;;;;4985928;28;20458;-67
2021/01/25 10:34:43;;;;;;;15.90;6.50;;;7.90;99.90;;;;;;4998007;28;20464;-66
2021/01/25 10:37:10;;;;;;;7.60;5.93;;;7.50;99.90;;;;;;4990027;28;20535;-66
2021/01/25 10:39:36;;;;;;;10.03;6.70;;;6.70;99.90;;;;;;4995459;28;20464;-67
2021/01/25 10:42:03;;;;;;;10.80;6.40;;;6.40;99.90;;;;;;4997958;28;20493;-67
2021/01/25 10:44:32;;;;;;;9.27;6.43;;;6.60;99.90;;;;;;4989831;28;20939;-66
2021/01/25 10:46:59;;;;;;;13.80;8.40;;;6.70;99.90;;;;;;5000227;28;20493;-66
2021/01/25 10:49:26;;;;;;;9.43;6.70;;;6.90;99.90;;;;;;4996640;28;20457;-66
2021/01/25 10:51:53;;;;;;;8.27;6.53;;;7.10;99.90;;;;;;4996462;28;20466;-66
2021/01/25 10:54:23;;;;;;;13.00;8.33;;;7.00;99.90;;;;;;4997058;28;20591;-66
2021/01/25 10:56:50;;;;;;;11.63;6.30;;;7.00;99.90;;;;;;5002499;28;20478;-66
2021/01/25 10:59:17;;;;;;;12.53;7.80;;;6.90;99.90;;;;;;4992589;28;20461;-67
2021/01/25 11:01:45;;;;;;;18.87;7.60;;;6.80;99.90;;;;;;4996100;28;20457;-66
2021/01/25 11:04:11;;;;;;;7.50;5.00;;;6.30;99.90;;;;;;4993232;28;20461;-65
2021/01/25 11:06:38;;;;;;;7.20;5.40;;;6.30;99.90;;;;;;4990969;28;21218;-65
2021/01/25 11:09:06;;;;;;;9.73;6.10;;;6.40;99.90;;;;;;4995211;28;20551;-66
2021/01/25 11:11:33;;;;;;;10.47;5.10;;;6.40;99.90;;;;;;5002634;28;20461;-66
2021/01/25 11:14:00;;;;;;;9.70;4.27;;;6.20;99.90;;;;;;5004698;28;20485;-67
2021/01/25 11:16:26;;;;;;;11.30;6.57;;;6.40;99.90;;;;;;4998801;28;20487;-66
2021/01/25 11:18:54;;;;;;;5.20;3.80;;;6.40;99.90;;;;;;4996376;28;20527;-66
2021/01/25 11:21:20;;;;;;;9.53;4.83;;;6.60;99.90;;;;;;4996703;28;21177;-66
2021/01/25 11:23:49;;;;;;;6.17;4.47;;;7.10;99.90;;;;;;4980240;28;20479;-67
2021/01/25 11:26:17;;;;;;;6.80;4.97;;;7.50;99.90;;;;;;5002707;28;20517;-66
2021/01/25 11:28:44;;;;;;;5.93;4.60;;;7.70;99.90;;;;;;5000539;28;20457;-66
2021/01/25 11:31:11;;;;;;;11.50;4.43;;;8.30;99.90;;;;;;4995277;28;20504;-66
2021/01/25 11:33:38;;;;;;;6.83;4.50;;;8.50;99.90;;;;;;5003619;28;20457;-66
2021/01/25 11:36:06;;;;;;;8.30;5.03;;;8.30;99.90;;;;;;4994391;28;20470;-65
2021/01/25 11:38:35;;;;;;;6.13;5.03;;;8.50;99.90;;;;;;5001287;28;20488;-66
2021/01/25 11:41:02;;;;;;;7.40;4.60;;;9.70;99.90;;;;;;4994793;28;20449;-67
2021/01/25 11:43:29;;;;;;;12.20;4.73;;;10.40;99.90;;;;;;4999647;28;20472;-66
2021/01/25 11:45:55;;;;;;;5.30;2.80;;;11.00;99.90;;;;;;4991918;28;20674;-66
2021/01/25 11:48:22;;;;;;;13.10;5.53;;;11.60;99.90;;;;;;4997620;28;20492;-65
2021/01/25 11:50:50;;;;;;;7.60;4.60;;;9.80;99.90;;;;;;4998188;28;20600;-66
2021/01/25 11:53:18;;;;;;;8.90;6.20;;;9.00;99.90;;;;;;4999269;28;20456;-66
2021/01/25 11:55:45;;;;;;;9.37;4.10;;;8.60;99.90;;;;;;4983154;28;20480;-66
2021/01/25 11:58:12;;;;;;;5.47;4.20;;;8.10;99.90;;;;;;4994068;28;20458;-66
2021/01/25 12:00:39;;;;;;;12.60;6.30;;;7.50;99.90;;;;;;5001805;28;20893;-65
2021/01/25 12:03:06;;;;;;;17.30;5.90;;;7.10;99.90;;;;;;4998673;28;20476;-65
2021/01/25 12:05:33;;;;;;;8.20;4.40;;;7.00;99.90;;;;;;4998864;28;20465;-66
2021/01/25 12:08:00;;;;;;;10.43;4.93;;;7.50;99.90;;;;;;5002195;28;20535;-67
2021/01/25 12:10:28;;;;;;;6.87;4.90;;;7.40;99.90;;;;;;4997936;28;20484;-66
2021/01/25 12:12:55;;;;;;;5.17;3.63;;;7.80;99.90;;;;;;4994211;28;20980;-66
2021/01/25 12:15:22;;;;;;;8.50;6.00;;;8.10;99.90;;;;;;4981994;28;20469;-66
2021/01/25 12:17:49;;;;;;;8.03;5.60;;;8.20;99.90;;;;;;4997519;28;21088;-65
2021/01/25 12:20:16;;;;;;;7.10;4.33;;;8.30;99.90;;;;;;4999525;28;20461;-66
2021/01/25 12:22:43;;;;;;;18.20;5.07;;;8.00;99.90;;;;;;5006410;28;21003;-67
2021/01/25 12:25:10;;;;;;;14.43;6.13;;;8.10;99.90;;;;;;4983266;28;20458;-67
2021/01/25 12:27:38;;;;;;;7.17;5.40;;;8.30;99.90;;;;;;4996398;28;20584;-66
2021/01/25 12:30:07;;;;;;;5.20;4.30;;;8.50;99.90;;;;;;4995935;28;20457;-66
2021/01/25 12:32:34;;;;;;;5.90;4.03;;;8.60;99.90;;;;;;5001493;28;20481;-66
2021/01/25 12:35:00;;;;;;;7.47;5.60;;;8.30;99.90;;;;;;5002206;28;20466;-66
2021/01/25 12:37:27;;;;;;;7.57;4.80;;;8.30;99.90;;;;;;4998702;28;20473;-68
2021/01/25 12:39:54;;;;;;;5.00;4.50;;;8.60;99.90;;;;;;4997934;28;22422;-66
2021/01/25 12:42:20;;;;;;;7.10;4.90;;;8.80;99.90;;;;;;4999231;28;20484;-67
2021/01/25 12:44:48;;;;;;;12.33;5.43;;;9.10;99.90;;;;;;4979673;28;20511;-66
2021/01/25 12:47:15;;;;;;;9.30;6.37;;;9.30;99.90;;;;;;4995851;28;20521;-66
2021/01/25 12:49:42;;;;;;;7.33;5.30;;;9.30;99.90;;;;;;4983208;28;20886;-67
2021/01/25 12:52:08;;;;;;;6.80;5.00;;;9.60;99.90;;;;;;4984067;28;20542;-66
2021/01/25 12:54:35;;;;;;;6.13;5.17;;;10.30;99.90;;;;;;4996324;28;20473;-67
2021/01/25 12:57:02;;;;;;;7.50;5.33;;;11.00;99.90;;;;;;4980627;28;20528;-66